createdAt,value
2019-02-08T00:00:37.645Z,6.50
2019-02-08T00:03:05.418Z,6.50
2019-02-08T00:05:32.143Z,6.50
2019-02-08T00:07:58.802Z,6.50
2019-02-08T00:10:25.584Z,6.50
2019-02-08T00:12:52.348Z,6.50
2019-02-08T00:15:20.516Z,6.50
2019-02-08T00:17:48.919Z,6.50
2019-02-08T00:20:16.958Z,6.50
2019-02-08T00:22:43.666Z,6.40
2019-02-08T00:25:14.131Z,6.40
2019-02-08T00:27:40.856Z,6.40
2019-02-08T00:30:16.829Z,6.40
2019-02-08T00:32:43.420Z,6.40
2019-02-08T00:35:09.970Z,6.40
2019-02-08T00:37:36.220Z,6.40
2019-02-08T00:40:06.423Z,6.50
2019-02-08T00:42:33.250Z,6.50
2019-02-08T00:45:05.853Z,6.50
2019-02-08T00:47:32.569Z,6.50
2019-02-08T00:49:59.444Z,6.50
2019-02-08T00:52:26.086Z,6.50
2019-02-08T00:54:52.478Z,6.50
2019-02-08T00:57:20.654Z,6.50
2019-02-08T00:59:47.285Z,6.50
2019-02-08T01:02:13.829Z,6.50
2019-02-08T01:04:40.466Z,6.50
2019-02-08T01:07:07.316Z,6.50
2019-02-08T01:09:34.169Z,6.50
2019-02-08T01:12:00.565Z,6.50
2019-02-08T01:14:27.572Z,6.50
2019-02-08T01:16:54.176Z,6.50
2019-02-08T01:19:20.871Z,6.50
2019-02-08T01:21:50.448Z,6.50
2019-02-08T01:24:16.826Z,6.50
2019-02-08T01:26:43.334Z,6.50
2019-02-08T01:29:09.869Z,6.50
2019-02-08T01:31:36.824Z,6.50
2019-02-08T01:34:03.652Z,6.60
2019-02-08T01:36:30.346Z,6.60
2019-02-08T01:38:57.032Z,6.60
2019-02-08T01:41:24.500Z,6.60
2019-02-08T01:43:51.538Z,6.60
2019-02-08T01:46:18.237Z,6.60
2019-02-08T01:48:45.118Z,6.60
2019-02-08T01:51:14.874Z,6.60
2019-02-08T01:53:48.522Z,6.60
2019-02-08T01:56:10.516Z,6.70
2019-02-08T01:58:37.133Z,6.60
2019-02-08T02:01:07.200Z,6.60
2019-02-08T02:03:36.985Z,6.60
2019-02-08T02:06:03.710Z,6.60
2019-02-08T02:08:33.486Z,6.60
2019-02-08T02:11:02.257Z,6.60
2019-02-08T02:13:28.798Z,6.60
2019-02-08T02:15:58.463Z,6.60
2019-02-08T02:18:24.988Z,6.60
2019-02-08T02:20:51.809Z,6.60
2019-02-08T02:23:19.254Z,6.60
2019-02-08T02:25:47.275Z,6.60
2019-02-08T02:28:13.774Z,6.70
2019-02-08T02:30:40.730Z,6.60
2019-02-08T02:33:11.249Z,6.60
2019-02-08T02:35:40.693Z,6.60
2019-02-08T02:38:09.254Z,6.60
2019-02-08T02:40:36.147Z,6.60
2019-02-08T02:43:04.271Z,6.60
2019-02-08T02:45:36.150Z,6.60
2019-02-08T02:48:04.341Z,6.60
2019-02-08T02:50:31.191Z,6.60
2019-02-08T02:52:57.732Z,6.60
2019-02-08T02:55:26.838Z,6.60
2019-02-08T02:57:59.178Z,6.60
2019-02-08T03:00:35.570Z,6.60
2019-02-08T03:03:02.484Z,6.60
2019-02-08T03:05:31.532Z,6.70
2019-02-08T03:07:58.578Z,6.70
2019-02-08T03:10:25.426Z,6.70
2019-02-08T03:12:53.936Z,6.70
2019-02-08T03:15:23.065Z,6.70
2019-02-08T03:17:50.829Z,6.70
2019-02-08T03:20:21.203Z,6.60
2019-02-08T03:22:48.501Z,6.60
2019-02-08T03:25:18.451Z,6.60
2019-02-08T03:27:45.220Z,6.60
2019-02-08T03:30:19.177Z,6.60
2019-02-08T03:32:45.879Z,6.60
2019-02-08T03:35:16.402Z,6.60
2019-02-08T03:37:43.316Z,6.60
2019-02-08T03:40:13.530Z,6.60
2019-02-08T03:42:40.173Z,6.70
2019-02-08T03:45:09.043Z,6.60
2019-02-08T03:47:37.799Z,6.70
2019-02-08T03:50:08.299Z,6.70
2019-02-08T03:52:34.893Z,6.70
2019-02-08T03:55:01.429Z,6.70
2019-02-08T03:57:28.227Z,6.70
2019-02-08T03:59:56.079Z,6.70
2019-02-08T04:02:22.642Z,6.60
2019-02-08T04:04:49.052Z,6.60
2019-02-08T04:07:16.087Z,6.60
2019-02-08T04:09:43.204Z,6.60
2019-02-08T04:12:10.692Z,6.60
2019-02-08T04:14:37.296Z,6.50
2019-02-08T04:17:03.886Z,6.50
2019-02-08T04:19:30.519Z,6.50
2019-02-08T04:21:57.080Z,6.50
2019-02-08T04:24:30.053Z,6.50
2019-02-08T04:26:53.473Z,6.50
2019-02-08T04:29:20.062Z,6.50
2019-02-08T04:31:47.072Z,6.50
2019-02-08T04:34:13.495Z,6.50
2019-02-08T04:36:40.156Z,6.40
2019-02-08T04:39:06.960Z,6.50
2019-02-08T04:41:33.591Z,6.50
2019-02-08T04:44:01.350Z,6.50
2019-02-08T04:46:28.110Z,6.40
2019-02-08T04:48:54.583Z,6.50
2019-02-08T04:51:21.086Z,6.50
2019-02-08T04:53:47.598Z,6.50
2019-02-08T04:56:14.083Z,6.50
2019-02-08T04:58:40.664Z,6.50
2019-02-08T05:01:08.371Z,6.50
2019-02-08T05:03:34.922Z,6.50
2019-02-08T05:06:01.596Z,6.50
2019-02-08T05:08:27.938Z,6.60
2019-02-08T05:10:54.459Z,6.60
2019-02-08T05:13:23.914Z,6.60
2019-02-08T05:15:50.153Z,6.60
2019-02-08T05:18:17.357Z,6.60
2019-02-08T05:20:43.603Z,6.60
2019-02-08T05:23:09.860Z,6.60
2019-02-08T05:25:36.087Z,6.60
2019-02-08T05:28:02.870Z,6.60
2019-02-08T05:30:32.103Z,6.60
2019-02-08T05:32:58.456Z,6.60
2019-02-08T05:35:24.810Z,6.60
2019-02-08T05:37:51.023Z,6.60
2019-02-08T05:40:18.720Z,6.70
2019-02-08T05:42:45.156Z,6.70
2019-02-08T05:45:14.833Z,6.70
2019-02-08T05:47:41.221Z,6.70
2019-02-08T05:50:11.011Z,6.60
2019-02-08T05:52:37.239Z,6.70
2019-02-08T05:55:06.714Z,6.70
2019-02-08T05:57:32.938Z,6.70
2019-02-08T05:59:59.379Z,6.70
2019-02-08T06:02:25.607Z,6.60
2019-02-08T06:04:51.865Z,6.60
2019-02-08T06:07:18.195Z,6.60
2019-02-08T06:09:44.455Z,6.60
2019-02-08T06:12:10.687Z,6.60
2019-02-08T06:14:36.957Z,6.60
2019-02-08T06:17:03.280Z,6.70
2019-02-08T06:19:29.519Z,6.60
2019-02-08T06:21:55.765Z,6.60
2019-02-08T06:24:22.009Z,6.70
2019-02-08T06:26:48.557Z,6.70
2019-02-08T06:29:14.795Z,6.70
2019-02-08T06:31:41.031Z,6.70
2019-02-08T06:34:07.259Z,6.70
2019-02-08T06:36:33.487Z,6.60
2019-02-08T06:38:59.884Z,6.60
2019-02-08T06:41:26.435Z,6.60
2019-02-08T06:43:52.724Z,6.60
2019-02-08T06:46:18.963Z,6.60
2019-02-08T06:48:45.586Z,6.60
2019-02-08T06:51:12.188Z,6.60
2019-02-08T06:53:38.808Z,6.70
2019-02-08T06:56:06.432Z,6.60
2019-02-08T06:58:34.576Z,6.70
2019-02-08T07:01:02.991Z,6.70
2019-02-08T07:03:40.477Z,6.70
2019-02-08T07:06:14.632Z,6.70
2019-02-08T07:08:48.740Z,6.60
2019-02-08T07:11:28.984Z,6.70
2019-02-08T07:13:57.139Z,6.60
2019-02-08T07:16:28.332Z,6.60
2019-02-08T07:19:13.139Z,6.70
2019-02-08T07:21:53.431Z,6.60
2019-02-08T07:24:24.532Z,6.60
2019-02-08T07:26:58.491Z,6.60
2019-02-08T07:29:29.679Z,6.70
2019-02-08T07:32:06.685Z,6.70
2019-02-08T07:34:35.020Z,6.70
2019-02-08T07:37:18.745Z,6.70
2019-02-08T07:39:59.750Z,6.70
2019-02-08T07:42:44.595Z,6.60
2019-02-08T07:45:13.631Z,6.60
2019-02-08T07:47:48.031Z,6.60
2019-02-08T07:50:24.475Z,6.60
2019-02-08T07:53:05.323Z,6.60
2019-02-08T07:55:33.786Z,6.60
2019-02-08T07:58:07.733Z,6.60
2019-02-08T08:00:53.303Z,6.60
2019-02-08T08:03:21.451Z,6.60
2019-02-08T08:05:52.762Z,6.60
2019-02-08T08:08:24.183Z,6.70
2019-02-08T08:11:07.489Z,6.70
2019-02-08T08:13:41.948Z,6.70
2019-02-08T08:16:17.675Z,6.70
2019-02-08T08:19:01.169Z,6.70
2019-02-08T08:21:46.276Z,6.80
2019-02-08T08:24:28.132Z,6.70
2019-02-08T08:26:59.519Z,6.80
2019-02-08T08:29:28.843Z,6.70
2019-02-08T08:31:57.776Z,6.70
2019-02-08T08:34:49.659Z,6.70
2019-02-08T08:37:36.418Z,6.70
2019-02-08T08:40:28.875Z,6.70
2019-02-08T08:43:10.570Z,6.70
2019-02-08T08:45:43.231Z,6.70
2019-02-08T08:48:37.595Z,6.70
2019-02-08T08:51:24.135Z,6.80
2019-02-08T08:54:06.295Z,6.80
2019-02-08T08:56:51.520Z,6.80
2019-02-08T08:59:41.271Z,6.80
2019-02-08T09:02:20.684Z,6.80
2019-02-08T09:04:59.999Z,6.80
2019-02-08T09:07:39.139Z,6.80
2019-02-08T09:10:27.329Z,6.80
2019-02-08T09:13:14.539Z,6.90
2019-02-08T09:15:55.107Z,6.90
2019-02-08T09:18:47.968Z,6.90
2019-02-08T09:21:36.480Z,6.90
2019-02-08T09:24:23.462Z,6.90
2019-02-08T09:26:56.207Z,6.90
2019-02-08T09:29:58.615Z,6.90
2019-02-08T09:32:45.635Z,6.90
2019-02-08T09:35:49.346Z,6.90
2019-02-08T09:38:47.033Z,6.90
2019-02-08T09:41:37.636Z,6.90
2019-02-08T09:44:20.004Z,6.90
2019-02-08T09:47:06.927Z,6.90
2019-02-08T09:49:56.822Z,6.90
2019-02-08T09:53:00.686Z,6.90
2019-02-08T09:55:59.974Z,6.90
2019-02-08T09:59:03.721Z,6.90
2019-02-08T10:01:59.185Z,6.90
2019-02-08T10:04:44.411Z,6.90
2019-02-08T10:07:34.427Z,7.00
2019-02-08T10:10:10.447Z,6.90
2019-02-08T10:12:40.550Z,7.00
2019-02-08T10:15:28.833Z,6.90
2019-02-08T10:18:07.709Z,7.00
2019-02-08T10:20:54.610Z,7.00
2019-02-08T10:23:48.967Z,7.00
2019-02-08T10:26:45.215Z,7.00
2019-02-08T10:29:42.120Z,7.10
2019-02-08T10:32:31.892Z,7.10
2019-02-08T10:35:22.704Z,7.10
2019-02-08T10:38:26.771Z,7.10
2019-02-08T10:41:16.904Z,7.20
2019-02-08T10:44:01.833Z,7.10
2019-02-08T10:46:44.031Z,7.10
2019-02-08T10:49:39.599Z,7.20
2019-02-08T10:52:30.479Z,7.20
2019-02-08T10:55:18.675Z,7.20
2019-02-08T10:58:01.060Z,7.20
2019-02-08T11:01:00.194Z,7.20
2019-02-08T11:03:42.599Z,7.20
2019-02-08T11:06:46.265Z,7.20
2019-02-08T11:09:25.308Z,7.20
2019-02-08T11:12:20.725Z,7.20
2019-02-08T11:15:06.077Z,7.30
2019-02-08T11:18:03.722Z,7.30
2019-02-08T11:20:30.348Z,7.30
2019-02-08T11:22:56.587Z,7.30
2019-02-08T11:25:23.231Z,7.30
2019-02-08T11:27:49.461Z,7.30
2019-02-08T11:30:16.479Z,7.40
2019-02-08T11:32:43.713Z,7.40
2019-02-08T11:35:12.576Z,7.40
2019-02-08T11:37:39.037Z,7.40
2019-02-08T11:40:11.871Z,7.50
2019-02-08T11:42:38.119Z,7.50
2019-02-08T11:45:08.184Z,7.50
2019-02-08T11:47:34.551Z,7.50
2019-02-08T11:50:00.799Z,7.50
2019-02-08T11:52:27.399Z,7.50
2019-02-08T11:54:53.612Z,7.50
2019-02-08T11:57:20.353Z,7.50
2019-02-08T11:59:46.895Z,7.50
2019-02-08T12:02:13.140Z,7.60
2019-02-08T12:04:39.865Z,7.60
2019-02-08T12:07:06.615Z,7.60
2019-02-08T12:09:33.057Z,7.60
2019-02-08T12:11:59.580Z,7.60
2019-02-08T12:14:26.257Z,7.60
2019-02-08T12:16:52.507Z,7.70
2019-02-08T12:19:18.725Z,7.70
2019-02-08T12:21:45.067Z,7.70
2019-02-08T12:24:11.394Z,7.70
2019-02-08T12:26:38.351Z,7.70
2019-02-08T12:29:05.326Z,7.70
2019-02-08T12:31:31.584Z,7.70
2019-02-08T12:33:57.815Z,7.70
2019-02-08T12:36:24.540Z,7.70
2019-02-08T12:38:51.064Z,7.80
2019-02-08T12:41:17.351Z,7.80
2019-02-08T12:43:43.576Z,7.80
2019-02-08T12:46:09.918Z,7.80
2019-02-08T12:48:36.566Z,7.80
2019-02-08T12:51:02.998Z,7.80
2019-02-08T12:53:29.219Z,7.80
2019-02-08T12:55:55.462Z,7.80
2019-02-08T12:58:21.710Z,7.80
2019-02-08T13:00:47.939Z,7.80
2019-02-08T13:03:14.157Z,7.80
2019-02-08T13:05:40.907Z,7.80
2019-02-08T13:08:07.238Z,7.80
2019-02-08T13:10:33.653Z,7.80
2019-02-08T13:13:00.234Z,7.80
2019-02-08T13:15:26.463Z,7.80
2019-02-08T13:17:52.704Z,7.80
2019-02-08T13:20:20.704Z,7.80
2019-02-08T13:22:46.891Z,7.80
2019-02-08T13:25:15.143Z,7.90
2019-02-08T13:27:41.445Z,7.90
2019-02-08T13:30:14.460Z,7.90
2019-02-08T13:32:40.685Z,7.90
2019-02-08T13:35:07.155Z,7.90
2019-02-08T13:37:33.378Z,7.90
2019-02-08T13:40:00.005Z,7.90
2019-02-08T13:42:26.262Z,7.90
2019-02-08T13:44:52.883Z,7.90
2019-02-08T13:47:19.084Z,7.90
2019-02-08T13:49:45.347Z,7.90
2019-02-08T13:52:11.572Z,7.90
2019-02-08T13:54:38.194Z,7.90
2019-02-08T13:57:04.535Z,8.00
2019-02-08T13:59:31.164Z,8.00
2019-02-08T14:01:57.403Z,8.00
2019-02-08T14:04:23.823Z,8.00
2019-02-08T14:06:49.999Z,8.00
2019-02-08T14:09:16.223Z,8.10
2019-02-08T14:11:42.483Z,8.10
2019-02-08T14:14:08.953Z,8.10
2019-02-08T14:16:35.317Z,8.10
2019-02-08T14:19:01.544Z,8.10
2019-02-08T14:21:27.810Z,8.10
2019-02-08T14:23:54.023Z,8.20
2019-02-08T14:26:20.277Z,8.20
2019-02-08T14:28:46.508Z,8.20
2019-02-08T14:31:12.774Z,8.20
2019-02-08T14:33:39.114Z,8.20
2019-02-08T14:36:05.705Z,8.20
2019-02-08T14:38:31.929Z,8.30
2019-02-08T14:40:58.588Z,8.20
2019-02-08T14:43:24.813Z,8.20
2019-02-08T14:45:51.249Z,8.20
2019-02-08T14:48:17.579Z,8.20
2019-02-08T14:50:44.096Z,8.30
2019-02-08T14:53:10.264Z,8.30
2019-02-08T14:55:36.611Z,8.30
2019-02-08T14:58:06.332Z,8.30
2019-02-08T15:00:32.580Z,8.30
2019-02-08T15:02:58.796Z,8.30
2019-02-08T15:05:25.139Z,8.30
2019-02-08T15:07:51.454Z,8.30
2019-02-08T15:10:27.040Z,8.30
2019-02-08T15:12:53.640Z,8.30
2019-02-08T15:15:19.988Z,8.30
2019-02-08T15:17:46.215Z,8.30
2019-02-08T15:20:22.725Z,8.30
2019-02-08T15:22:49.064Z,8.20
2019-02-08T15:25:16.326Z,8.20
2019-02-08T15:27:42.853Z,8.20
2019-02-08T15:30:12.841Z,8.20
2019-02-08T15:32:39.142Z,8.20
2019-02-08T15:35:08.840Z,8.20
2019-02-08T15:37:35.075Z,8.20
2019-02-08T15:40:01.529Z,8.10
2019-02-08T15:42:27.773Z,8.10
2019-02-08T15:44:54.029Z,8.10
2019-02-08T15:47:20.410Z,8.10
2019-02-08T15:49:46.731Z,8.00
2019-02-08T15:52:13.359Z,8.00
2019-02-08T15:54:40.727Z,8.00
2019-02-08T15:57:07.928Z,8.00
2019-02-08T15:59:34.465Z,8.00
2019-02-08T16:02:00.899Z,7.90
2019-02-08T16:04:27.386Z,7.90
2019-02-08T16:06:53.632Z,7.90
2019-02-08T16:09:20.199Z,7.90
2019-02-08T16:11:46.462Z,7.90
2019-02-08T16:14:12.695Z,7.90
2019-02-08T16:16:39.411Z,7.90
2019-02-08T16:19:05.735Z,7.80
2019-02-08T16:21:31.991Z,7.80
2019-02-08T16:23:58.331Z,7.80
2019-02-08T16:26:24.709Z,7.80
2019-02-08T16:28:51.028Z,7.70
2019-02-08T16:31:17.275Z,7.70
2019-02-08T16:33:43.520Z,7.70
2019-02-08T16:36:09.862Z,7.70
2019-02-08T16:38:36.212Z,7.70
2019-02-08T16:41:03.365Z,7.60
2019-02-08T16:43:29.616Z,7.60
2019-02-08T16:45:56.084Z,7.60
2019-02-08T16:48:22.383Z,7.60
2019-02-08T16:50:48.636Z,7.60
2019-02-08T16:53:14.857Z,7.60
2019-02-08T16:55:41.322Z,7.60
2019-02-08T16:58:09.686Z,7.60
2019-02-08T17:00:37.443Z,7.60
2019-02-08T17:03:06.766Z,7.60
2019-02-08T17:05:33.921Z,7.60
2019-02-08T17:08:00.240Z,7.60
2019-02-08T17:10:26.976Z,7.70
2019-02-08T17:12:53.543Z,7.60
2019-02-08T17:15:30.203Z,7.60
2019-02-08T17:17:57.100Z,7.60
2019-02-08T17:20:38.452Z,7.60
2019-02-08T17:23:06.114Z,7.60
2019-02-08T17:25:33.321Z,7.70
2019-02-08T17:28:06.022Z,7.70
2019-02-08T17:30:32.761Z,7.70
2019-02-08T17:33:01.409Z,7.70
2019-02-08T17:35:32.632Z,7.70
2019-02-08T17:46:37.616Z,7.70
2019-02-08T17:49:10.908Z,7.80
2019-02-08T17:51:45.058Z,7.80
2019-02-08T17:54:11.642Z,7.80
2019-02-08T17:56:38.716Z,7.80
2019-02-08T17:59:11.156Z,7.80
2019-02-08T18:01:43.968Z,7.80
2019-02-08T18:04:10.922Z,7.80
2019-02-08T18:06:37.907Z,7.80
2019-02-08T18:09:11.266Z,7.90
2019-02-08T18:11:37.861Z,7.90
2019-02-08T18:14:04.638Z,7.90
2019-02-08T18:16:31.924Z,7.90
2019-02-08T18:19:01.868Z,7.90
2019-02-08T18:21:28.477Z,7.90
2019-02-08T18:23:56.970Z,7.90
2019-02-08T18:26:23.376Z,7.90
2019-02-08T18:28:50.293Z,7.90
2019-02-08T18:31:18.057Z,8.00
2019-02-08T18:33:44.517Z,8.00
2019-02-08T18:36:13.499Z,8.00
2019-02-08T18:38:39.907Z,8.00
2019-02-08T18:41:07.009Z,8.00
2019-02-08T18:43:33.406Z,7.90
2019-02-08T18:45:59.945Z,7.90
2019-02-08T18:48:26.333Z,8.00
2019-02-08T18:50:53.932Z,8.00
2019-02-08T18:53:20.538Z,8.00
2019-02-08T18:55:46.961Z,8.00
2019-02-08T18:58:18.697Z,8.00
2019-02-08T19:00:47.274Z,8.00
2019-02-08T19:03:13.604Z,8.00
2019-02-08T19:05:43.173Z,8.00
2019-02-08T19:08:09.784Z,8.00
2019-02-08T19:10:36.122Z,8.00
2019-02-08T19:13:03.610Z,8.10
2019-02-08T19:15:30.121Z,8.10
2019-02-08T19:17:56.528Z,8.10
2019-02-08T19:20:24.862Z,8.10
2019-02-08T19:22:51.242Z,8.10
2019-02-08T19:25:24.097Z,8.10
2019-02-08T19:27:50.866Z,8.10
2019-02-08T19:30:27.640Z,8.10
2019-02-08T19:32:53.978Z,8.10
2019-02-08T19:35:20.360Z,8.10
2019-02-08T19:37:46.646Z,8.10
2019-02-08T19:40:16.455Z,8.10
2019-02-08T19:42:43.180Z,8.10
2019-02-08T19:45:15.131Z,8.10
2019-02-08T19:47:41.973Z,8.10
2019-02-08T19:50:12.051Z,8.10
2019-02-08T19:52:38.957Z,8.10
2019-02-08T19:55:09.037Z,8.10
2019-02-08T19:57:35.432Z,8.10
2019-02-08T20:00:04.333Z,8.10
2019-02-08T20:02:31.246Z,8.10
2019-02-08T20:04:57.553Z,8.10
2019-02-08T20:07:27.131Z,8.10
2019-02-08T20:09:53.551Z,8.10
2019-02-08T20:12:20.370Z,8.10
2019-02-08T20:14:47.162Z,8.10
2019-02-08T20:17:19.922Z,8.10
2019-02-08T20:19:46.461Z,8.10
2019-02-08T20:22:13.046Z,8.10
2019-02-08T20:24:39.405Z,8.10
2019-02-08T20:27:07.823Z,8.10
2019-02-08T20:29:34.360Z,8.20
2019-02-08T20:32:00.928Z,8.10
2019-02-08T20:34:27.877Z,8.10
2019-02-08T20:36:54.436Z,8.20
2019-02-08T20:39:20.994Z,8.20
2019-02-08T20:41:47.345Z,8.20
2019-02-08T20:44:14.139Z,8.20
2019-02-08T20:46:40.622Z,8.20
2019-02-08T20:49:07.106Z,8.20
2019-02-08T20:51:36.637Z,8.20
2019-02-08T20:54:03.467Z,8.20
2019-02-08T20:56:31.387Z,8.20
2019-02-08T20:58:58.095Z,8.20
2019-02-08T21:01:24.911Z,8.20
2019-02-08T21:03:51.419Z,8.20
2019-02-08T21:06:17.967Z,8.20
2019-02-08T21:08:45.635Z,8.20
2019-02-08T21:11:12.586Z,8.20
2019-02-08T21:13:39.561Z,8.20
2019-02-08T21:16:06.297Z,8.20
2019-02-08T21:18:32.660Z,8.20
2019-02-08T21:20:59.158Z,8.20
2019-02-08T21:23:25.474Z,8.20
2019-02-08T21:25:58.055Z,8.20
2019-02-08T21:28:24.447Z,8.20
2019-02-08T21:30:50.925Z,8.20
2019-02-08T21:33:17.763Z,8.30
2019-02-08T21:35:44.309Z,8.20
2019-02-08T21:38:11.316Z,8.20
2019-02-08T21:40:37.941Z,8.20
2019-02-08T21:43:05.881Z,8.20
2019-02-08T21:45:34.830Z,8.30
2019-02-08T21:48:01.405Z,8.30
2019-02-08T21:50:28.675Z,8.30
2019-02-08T21:52:55.126Z,8.30
2019-02-08T21:55:26.349Z,8.30
2019-02-08T21:57:52.860Z,8.30
2019-02-08T22:00:28.081Z,8.30
2019-02-08T22:02:55.626Z,8.30
2019-02-08T22:05:24.649Z,8.30
2019-02-08T22:07:51.163Z,8.30
2019-02-08T22:10:17.733Z,8.30
2019-02-08T22:12:44.499Z,8.30
2019-02-08T22:15:17.368Z,8.30
2019-02-08T22:17:43.957Z,8.30
2019-02-08T22:20:15.398Z,8.40
2019-02-08T22:22:42.220Z,8.40
2019-02-08T22:25:17.191Z,8.40
2019-02-08T22:27:44.071Z,8.40
2019-02-08T22:30:19.338Z,8.40
2019-02-08T22:32:47.254Z,8.40
2019-02-08T22:35:15.493Z,8.30
2019-02-08T22:37:42.379Z,8.40
2019-02-08T22:40:12.117Z,8.40
2019-02-08T22:42:38.506Z,8.40
2019-02-08T22:45:09.173Z,8.40
2019-02-08T22:47:35.494Z,8.40
2019-02-08T22:50:04.594Z,8.40
2019-02-08T22:52:31.196Z,8.40
2019-02-08T22:54:59.107Z,8.40
2019-02-08T22:57:25.787Z,8.40
2019-02-08T22:59:55.512Z,8.40
2019-02-08T23:02:22.025Z,8.40
2019-02-08T23:04:48.678Z,8.40
2019-02-08T23:07:15.344Z,8.50
2019-02-08T23:09:41.745Z,8.50
2019-02-08T23:12:08.532Z,8.50
2019-02-08T23:14:36.562Z,8.50
2019-02-08T23:17:03.754Z,8.50
2019-02-08T23:19:30.147Z,8.50
2019-02-08T23:21:57.148Z,8.50
2019-02-08T23:24:23.733Z,8.50
2019-02-08T23:26:50.649Z,8.50
2019-02-08T23:29:17.004Z,8.50
2019-02-08T23:31:43.736Z,8.50
2019-02-08T23:34:10.068Z,8.50
2019-02-08T23:36:36.428Z,8.50
2019-02-08T23:39:06.464Z,8.50
2019-02-08T23:41:33.030Z,8.50
2019-02-08T23:43:59.391Z,8.50
2019-02-08T23:46:25.834Z,8.50
2019-02-08T23:48:52.046Z,8.50
2019-02-08T23:51:18.415Z,8.50
2019-02-08T23:53:44.647Z,8.50
2019-02-08T23:56:11.091Z,8.50
2019-02-08T23:58:37.307Z,8.50
